sensor_id;sensor_type;location;lat;lon;timestamp;P1;durP1;ratioP1;P2;durP2;ratioP2
59314;SDS011;46521;50.160;20.802;2024-03-02T00:03:02;31.03;;;18.65;;
59314;SDS011;46521;50.160;20.802;2024-03-02T00:13:07;28.40;;;19.70;;
59314;SDS011;46521;50.160;20.802;2024-03-02T00:23:10;32.75;;;20.00;;
59314;SDS011;46521;50.160;20.802;2024-03-02T00:33:16;32.25;;;20.50;;
59314;SDS011;46521;50.160;20.802;2024-03-02T00:53:28;31.08;;;19.58;;
59314;SDS011;46521;50.160;20.802;2024-03-02T01:03:31;31.63;;;20.33;;
59314;SDS011;46521;50.160;20.802;2024-03-02T01:13:33;31.53;;;19.70;;
59314;SDS011;46521;50.160;20.802;2024-03-02T01:23:35;32.13;;;20.43;;
59314;SDS011;46521;50.160;20.802;2024-03-02T01:33:36;31.20;;;19.88;;
59314;SDS011;46521;50.160;20.802;2024-03-02T01:43:38;31.28;;;20.33;;
59314;SDS011;46521;50.160;20.802;2024-03-02T01:53:40;28.60;;;19.85;;
59314;SDS011;46521;50.160;20.802;2024-03-02T02:03:41;31.00;;;20.08;;
59314;SDS011;46521;50.160;20.802;2024-03-02T02:13:43;30.60;;;19.28;;
59314;SDS011;46521;50.160;20.802;2024-03-02T02:23:44;31.33;;;18.60;;
59314;SDS011;46521;50.160;20.802;2024-03-02T02:33:49;30.88;;;18.85;;
59314;SDS011;46521;50.160;20.802;2024-03-02T02:43:50;30.33;;;19.00;;
59314;SDS011;46521;50.160;20.802;2024-03-02T02:53:52;28.18;;;18.88;;
59314;SDS011;46521;50.160;20.802;2024-03-02T03:03:53;28.85;;;18.10;;
59314;SDS011;46521;50.160;20.802;2024-03-02T03:13:55;30.78;;;18.93;;
59314;SDS011;46521;50.160;20.802;2024-03-02T03:23:56;32.50;;;19.27;;
59314;SDS011;46521;50.160;20.802;2024-03-02T03:33:57;28.47;;;18.47;;
59314;SDS011;46521;50.160;20.802;2024-03-02T03:43:59;28.43;;;17.30;;
59314;SDS011;46521;50.160;20.802;2024-03-02T03:54:01;27.00;;;17.20;;
59314;SDS011;46521;50.160;20.802;2024-03-02T04:04:02;28.08;;;17.78;;
59314;SDS011;46521;50.160;20.802;2024-03-02T04:14:04;29.25;;;18.43;;
59314;SDS011;46521;50.160;20.802;2024-03-02T04:24:07;28.78;;;18.35;;
59314;SDS011;46521;50.160;20.802;2024-03-02T04:34:09;31.77;;;17.63;;
59314;SDS011;46521;50.160;20.802;2024-03-02T04:44:11;26.03;;;16.90;;
59314;SDS011;46521;50.160;20.802;2024-03-02T04:54:12;28.07;;;17.77;;
59314;SDS011;46521;50.160;20.802;2024-03-02T05:04:15;28.55;;;17.40;;
59314;SDS011;46521;50.160;20.802;2024-03-02T05:14:16;31.28;;;18.23;;
59314;SDS011;46521;50.160;20.802;2024-03-02T05:24:18;28.98;;;18.45;;
59314;SDS011;46521;50.160;20.802;2024-03-02T05:34:19;28.55;;;18.68;;
59314;SDS011;46521;50.160;20.802;2024-03-02T05:44:21;27.90;;;17.70;;
59314;SDS011;46521;50.160;20.802;2024-03-02T05:54:23;31.13;;;17.23;;
59314;SDS011;46521;50.160;20.802;2024-03-02T06:04:24;27.40;;;17.00;;
59314;SDS011;46521;50.160;20.802;2024-03-02T06:14:26;32.57;;;19.70;;
59314;SDS011;46521;50.160;20.802;2024-03-02T06:24:27;28.67;;;18.60;;
59314;SDS011;46521;50.160;20.802;2024-03-02T06:44:40;31.80;;;18.95;;
59314;SDS011;46521;50.160;20.802;2024-03-02T06:54:42;60.70;;;32.53;;
59314;SDS011;46521;50.160;20.802;2024-03-02T07:04:43;31.68;;;19.33;;
59314;SDS011;46521;50.160;20.802;2024-03-02T07:14:46;31.90;;;19.53;;
59314;SDS011;46521;50.160;20.802;2024-03-02T07:25:12;37.43;;;22.57;;
59314;SDS011;46521;50.160;20.802;2024-03-02T07:35:14;94.23;;;55.43;;
59314;SDS011;46521;50.160;20.802;2024-03-02T07:45:15;31.18;;;19.45;;
59314;SDS011;46521;50.160;20.802;2024-03-02T07:55:17;62.08;;;34.83;;
59314;SDS011;46521;50.160;20.802;2024-03-02T08:05:18;98.20;;;59.87;;
59314;SDS011;46521;50.160;20.802;2024-03-02T08:15:20;30.98;;;18.98;;
59314;SDS011;46521;50.160;20.802;2024-03-02T08:25:24;32.40;;;19.10;;
59314;SDS011;46521;50.160;20.802;2024-03-02T08:35:26;33.23;;;20.23;;
59314;SDS011;46521;50.160;20.802;2024-03-02T08:45:27;31.80;;;20.23;;
59314;SDS011;46521;50.160;20.802;2024-03-02T08:55:29;34.60;;;20.48;;
59314;SDS011;46521;50.160;20.802;2024-03-02T09:05:31;42.50;;;24.45;;
59314;SDS011;46521;50.160;20.802;2024-03-02T09:15:32;41.33;;;25.10;;
59314;SDS011;46521;50.160;20.802;2024-03-02T09:25:38;36.23;;;21.43;;
59314;SDS011;46521;50.160;20.802;2024-03-02T09:35:39;37.48;;;22.30;;
59314;SDS011;46521;50.160;20.802;2024-03-02T09:45:41;39.23;;;24.67;;
59314;SDS011;46521;50.160;20.802;2024-03-02T09:55:46;32.65;;;21.23;;
59314;SDS011;46521;50.160;20.802;2024-03-02T10:05:48;34.10;;;21.17;;
59314;SDS011;46521;50.160;20.802;2024-03-02T10:15:49;33.37;;;21.33;;
59314;SDS011;46521;50.160;20.802;2024-03-02T10:25:51;34.38;;;24.18;;
59314;SDS011;46521;50.160;20.802;2024-03-02T10:35:53;31.28;;;22.40;;
59314;SDS011;46521;50.160;20.802;2024-03-02T10:45:54;32.03;;;21.45;;
59314;SDS011;46521;50.160;20.802;2024-03-02T10:55:58;42.53;;;25.35;;
59314;SDS011;46521;50.160;20.802;2024-03-02T11:06:03;45.67;;;28.67;;
59314;SDS011;46521;50.160;20.802;2024-03-02T11:16:12;34.93;;;23.10;;
59314;SDS011;46521;50.160;20.802;2024-03-02T11:26:38;34.95;;;22.98;;
59314;SDS011;46521;50.160;20.802;2024-03-02T11:36:41;30.13;;;22.08;;
59314;SDS011;46521;50.160;20.802;2024-03-02T11:46:44;40.08;;;28.25;;
59314;SDS011;46521;50.160;20.802;2024-03-02T11:56:46;30.50;;;20.60;;
59314;SDS011;46521;50.160;20.802;2024-03-02T12:06:54;35.93;;;23.10;;
59314;SDS011;46521;50.160;20.802;2024-03-02T12:17:02;31.88;;;21.18;;
59314;SDS011;46521;50.160;20.802;2024-03-02T12:27:06;32.50;;;21.13;;
59314;SDS011;46521;50.160;20.802;2024-03-02T12:37:08;32.73;;;21.05;;
59314;SDS011;46521;50.160;20.802;2024-03-02T12:47:14;36.95;;;21.63;;
59314;SDS011;46521;50.160;20.802;2024-03-02T12:57:19;33.18;;;21.98;;
59314;SDS011;46521;50.160;20.802;2024-03-02T13:07:20;34.15;;;21.95;;
59314;SDS011;46521;50.160;20.802;2024-03-02T13:17:26;36.37;;;20.67;;
59314;SDS011;46521;50.160;20.802;2024-03-02T13:27:28;28.68;;;20.13;;
59314;SDS011;46521;50.160;20.802;2024-03-02T13:37:29;27.58;;;17.55;;
59314;SDS011;46521;50.160;20.802;2024-03-02T13:47:31;31.28;;;19.90;;
59314;SDS011;46521;50.160;20.802;2024-03-02T13:57:33;30.15;;;18.60;;
59314;SDS011;46521;50.160;20.802;2024-03-02T14:07:46;24.40;;;14.95;;
59314;SDS011;46521;50.160;20.802;2024-03-02T14:17:47;22.00;;;13.67;;
59314;SDS011;46521;50.160;20.802;2024-03-02T14:27:49;23.15;;;15.48;;
59314;SDS011;46521;50.160;20.802;2024-03-02T14:37:51;24.10;;;15.68;;
59314;SDS011;46521;50.160;20.802;2024-03-02T14:47:53;27.00;;;18.55;;
59314;SDS011;46521;50.160;20.802;2024-03-02T14:57:55;26.50;;;19.35;;
59314;SDS011;46521;50.160;20.802;2024-03-02T15:07:56;33.48;;;21.03;;
59314;SDS011;46521;50.160;20.802;2024-03-02T15:18:00;39.10;;;25.65;;
59314;SDS011;46521;50.160;20.802;2024-03-02T15:28:01;31.27;;;22.00;;
59314;SDS011;46521;50.160;20.802;2024-03-02T15:38:03;30.83;;;18.55;;
59314;SDS011;46521;50.160;20.802;2024-03-02T15:48:05;31.40;;;19.88;;
59314;SDS011;46521;50.160;20.802;2024-03-02T15:58:06;33.80;;;22.50;;
59314;SDS011;46521;50.160;20.802;2024-03-02T16:08:08;37.55;;;23.65;;
59314;SDS011;46521;50.160;20.802;2024-03-02T16:18:10;40.50;;;24.18;;
59314;SDS011;46521;50.160;20.802;2024-03-02T16:28:12;45.48;;;28.30;;
59314;SDS011;46521;50.160;20.802;2024-03-02T16:38:13;41.38;;;28.28;;
59314;SDS011;46521;50.160;20.802;2024-03-02T16:48:15;47.83;;;30.77;;
59314;SDS011;46521;50.160;20.802;2024-03-02T16:58:17;53.60;;;33.28;;
59314;SDS011;46521;50.160;20.802;2024-03-02T17:08:20;54.43;;;34.13;;
59314;SDS011;46521;50.160;20.802;2024-03-02T17:18:21;53.03;;;33.83;;
59314;SDS011;46521;50.160;20.802;2024-03-02T17:28:23;57.67;;;36.87;;
59314;SDS011;46521;50.160;20.802;2024-03-02T17:38:26;66.25;;;39.18;;
59314;SDS011;46521;50.160;20.802;2024-03-02T17:48:29;62.10;;;39.03;;
59314;SDS011;46521;50.160;20.802;2024-03-02T17:58:30;55.35;;;36.90;;
59314;SDS011;46521;50.160;20.802;2024-03-02T18:08:33;64.83;;;44.30;;
59314;SDS011;46521;50.160;20.802;2024-03-02T18:18:34;58.85;;;38.50;;
59314;SDS011;46521;50.160;20.802;2024-03-02T18:28:36;57.30;;;35.88;;
59314;SDS011;46521;50.160;20.802;2024-03-02T18:38:37;67.20;;;41.23;;
59314;SDS011;46521;50.160;20.802;2024-03-02T18:48:39;64.78;;;41.10;;
59314;SDS011;46521;50.160;20.802;2024-03-02T18:58:41;63.10;;;40.17;;
59314;SDS011;46521;50.160;20.802;2024-03-02T19:08:42;67.40;;;41.58;;
59314;SDS011;46521;50.160;20.802;2024-03-02T19:18:44;77.43;;;45.97;;
59314;SDS011;46521;50.160;20.802;2024-03-02T19:28:45;68.00;;;43.98;;
59314;SDS011;46521;50.160;20.802;2024-03-02T19:38:47;74.00;;;46.53;;
59314;SDS011;46521;50.160;20.802;2024-03-02T19:48:49;69.93;;;43.73;;
59314;SDS011;46521;50.160;20.802;2024-03-02T19:58:50;71.53;;;44.38;;
59314;SDS011;46521;50.160;20.802;2024-03-02T20:08:52;63.77;;;42.33;;
59314;SDS011;46521;50.160;20.802;2024-03-02T20:18:53;66.40;;;41.93;;
59314;SDS011;46521;50.160;20.802;2024-03-02T20:28:55;69.35;;;45.18;;
59314;SDS011;46521;50.160;20.802;2024-03-02T20:38:57;61.15;;;39.83;;
59314;SDS011;46521;50.160;20.802;2024-03-02T20:48:59;65.20;;;39.20;;
59314;SDS011;46521;50.160;20.802;2024-03-02T20:59:03;66.57;;;40.57;;
59314;SDS011;46521;50.160;20.802;2024-03-02T21:09:05;64.00;;;39.03;;
59314;SDS011;46521;50.160;20.802;2024-03-02T21:19:07;55.95;;;39.63;;
59314;SDS011;46521;50.160;20.802;2024-03-02T21:29:09;60.20;;;39.60;;
59314;SDS011;46521;50.160;20.802;2024-03-02T21:39:11;66.57;;;41.50;;
59314;SDS011;46521;50.160;20.802;2024-03-02T21:49:13;64.65;;;39.93;;
59314;SDS011;46521;50.160;20.802;2024-03-02T21:59:14;64.68;;;42.05;;
59314;SDS011;46521;50.160;20.802;2024-03-02T22:09:16;62.98;;;40.58;;
59314;SDS011;46521;50.160;20.802;2024-03-02T22:19:17;60.15;;;38.93;;
59314;SDS011;46521;50.160;20.802;2024-03-02T22:29:19;62.03;;;39.73;;
59314;SDS011;46521;50.160;20.802;2024-03-02T22:39:20;64.10;;;40.15;;
59314;SDS011;46521;50.160;20.802;2024-03-02T22:49:22;61.20;;;39.05;;
59314;SDS011;46521;50.160;20.802;2024-03-02T22:59:23;61.35;;;37.80;;
59314;SDS011;46521;50.160;20.802;2024-03-02T23:09:25;58.43;;;36.37;;
59314;SDS011;46521;50.160;20.802;2024-03-02T23:19:26;55.30;;;36.37;;
59314;SDS011;46521;50.160;20.802;2024-03-02T23:29:28;58.00;;;37.05;;
59314;SDS011;46521;50.160;20.802;2024-03-02T23:39:29;61.30;;;38.90;;
59314;SDS011;46521;50.160;20.802;2024-03-02T23:49:59;54.20;;;36.37;;
